Terminal Aerodrome Forecast
Issued by NWS

Home | Current Version | Previous Version | Text Only | Print | Product List | Glossary On
Versions: 1 2 3 4 5 6 7 8 9 10 11 12 13 14 15 16
000
FTUS45 KGJT 220535
TAFEGE
TAF
KEGE 220535Z 2206/2306 16004KT P6SM FEW080 SCT200
     FM221700 23010KT P6SM BKN100 BKN140
     FM222100 23010KT P6SM VCTS SCT090CB BKN100
     FM230000 25010KT P6SM VCSH BKN080 BKN090
     FM230300 26006KT P6SM BKN070 BKN100
      AMD LTD TO CLD VIS AND WIND TIL 221300=

USA.gov is the U.S. government's official web portal to all federal, state and local government web resources and services.